sensor_id;sensor_type;location;lat;lon;timestamp;pressure;altitude;pressure_sealevel;temperature;humidity
36304;BME280;22335;49.800;8.596;2023-09-19T00:02:52;99901.84;;;20.94;65.73
36304;BME280;22335;49.800;8.596;2023-09-19T00:09:36;99958.16;;;21.10;66.00
36304;BME280;22335;49.800;8.596;2023-09-19T00:16:20;99958.97;;;21.11;66.00
36304;BME280;22335;49.800;8.596;2023-09-19T00:23:05;99956.25;;;21.14;65.94
36304;BME280;22335;49.800;8.596;2023-09-19T00:29:50;99958.72;;;21.19;65.89
36304;BME280;22335;49.800;8.596;2023-09-19T00:36:35;99965.22;;;21.27;66.00
36304;BME280;22335;49.800;8.596;2023-09-19T00:43:20;99962.44;;;21.27;65.88
36304;BME280;22335;49.800;8.596;2023-09-19T00:50:08;99975.94;;;21.25;66.15
36304;BME280;22335;49.800;8.596;2023-09-19T00:56:57;99980.16;;;21.38;66.04
36304;BME280;22335;49.800;8.596;2023-09-19T01:03:41;99992.47;;;21.37;66.15
36304;BME280;22335;49.800;8.596;2023-09-19T01:10:26;99944.41;;;20.98;66.24
36304;BME280;22335;49.800;8.596;2023-09-19T01:17:18;99995.81;;;21.27;66.46
36304;BME280;22335;49.800;8.596;2023-09-19T01:31:28;100008.13;;;21.26;66.88
36304;BME280;22335;49.800;8.596;2023-09-19T01:38:15;100023.50;;;21.20;67.21
36304;BME280;22335;49.800;8.596;2023-09-19T01:45:03;100027.53;;;21.23;66.45
36304;BME280;22335;49.800;8.596;2023-09-19T01:52:00;99984.50;;;21.16;66.37
36304;BME280;22335;49.800;8.596;2023-09-19T01:58:49;99979.97;;;21.28;66.45
36304;BME280;22335;49.800;8.596;2023-09-19T02:05:36;100057.41;;;21.87;66.07
36304;BME280;22335;49.800;8.596;2023-09-19T02:12:22;100033.94;;;21.88;65.83
36304;BME280;22335;49.800;8.596;2023-09-19T02:19:06;100073.72;;;22.12;65.47
36304;BME280;22335;49.800;8.596;2023-09-19T02:25:52;100070.72;;;22.21;65.36
36304;BME280;22335;49.800;8.596;2023-09-19T02:32:37;100031.91;;;22.08;65.03
36304;BME280;22335;49.800;8.596;2023-09-19T02:39:21;100081.72;;;22.37;64.80
36304;BME280;22335;49.800;8.596;2023-09-19T03:01:10;100095.53;;;22.29;64.10
36304;BME280;22335;49.800;8.596;2023-09-19T03:07:54;100106.19;;;22.24;64.17
36304;BME280;22335;49.800;8.596;2023-09-19T03:14:37;100112.06;;;22.19;64.01
36304;BME280;22335;49.800;8.596;2023-09-19T03:21:22;100101.66;;;22.16;63.76
36304;BME280;22335;49.800;8.596;2023-09-19T03:28:07;100119.63;;;22.18;63.85
36304;BME280;22335;49.800;8.596;2023-09-19T03:34:51;100127.53;;;22.16;63.28
36304;BME280;22335;49.800;8.596;2023-09-19T03:41:36;100115.38;;;22.05;63.63
36304;BME280;22335;49.800;8.596;2023-09-19T03:48:20;100125.53;;;21.94;63.68
36304;BME280;22335;49.800;8.596;2023-09-19T03:55:06;100125.88;;;21.92;63.71
36304;BME280;22335;49.800;8.596;2023-09-19T04:01:53;100125.53;;;21.94;63.54
36304;BME280;22335;49.800;8.596;2023-09-19T04:08:38;100116.09;;;21.79;63.59
36304;BME280;22335;49.800;8.596;2023-09-19T04:15:23;100129.09;;;21.71;63.99
36304;BME280;22335;49.800;8.596;2023-09-19T04:22:09;100077.63;;;21.42;63.58
36304;BME280;22335;49.800;8.596;2023-09-19T04:28:54;100138.47;;;21.63;63.65
36304;BME280;22335;49.800;8.596;2023-09-19T04:35:38;100132.03;;;21.59;63.31
36304;BME280;22335;49.800;8.596;2023-09-19T04:42:26;100150.81;;;21.85;62.64
36304;BME280;22335;49.800;8.596;2023-09-19T04:49:12;100171.19;;;21.70;62.69
36304;BME280;22335;49.800;8.596;2023-09-19T04:55:56;100176.00;;;21.34;63.21
36304;BME280;22335;49.800;8.596;2023-09-19T05:02:41;100185.81;;;21.12;63.57
36304;BME280;22335;49.800;8.596;2023-09-19T05:09:25;100188.09;;;21.06;63.66
36304;BME280;22335;49.800;8.596;2023-09-19T05:16:09;100144.84;;;20.73;63.51
36304;BME280;22335;49.800;8.596;2023-09-19T05:22:59;100219.41;;;21.03;63.64
36304;BME280;22335;49.800;8.596;2023-09-19T05:29:43;100219.50;;;21.07;63.50
36304;BME280;22335;49.800;8.596;2023-09-19T05:36:27;100211.34;;;20.98;63.37
36304;BME280;22335;49.800;8.596;2023-09-19T05:43:13;100165.75;;;20.52;63.52
36304;BME280;22335;49.800;8.596;2023-09-19T05:49:57;100219.25;;;20.64;63.70
36304;BME280;22335;49.800;8.596;2023-09-19T05:56:41;100229.38;;;20.57;63.73
36304;BME280;22335;49.800;8.596;2023-09-19T06:03:25;100236.81;;;20.53;63.82
36304;BME280;22335;49.800;8.596;2023-09-19T06:10:10;100213.81;;;20.24;63.74
36304;BME280;22335;49.800;8.596;2023-09-19T06:16:54;100246.91;;;20.45;63.75
36304;BME280;22335;49.800;8.596;2023-09-19T06:23:39;100249.94;;;20.40;63.87
36304;BME280;22335;49.800;8.596;2023-09-19T06:30:24;100200.94;;;20.03;63.89
36304;BME280;22335;49.800;8.596;2023-09-19T06:37:07;100228.31;;;20.17;64.03
36304;BME280;22335;49.800;8.596;2023-09-19T06:43:52;100217.19;;;20.17;63.68
36304;BME280;22335;49.800;8.596;2023-09-19T06:50:36;100257.53;;;20.55;63.45
36304;BME280;22335;49.800;8.596;2023-09-19T06:57:20;100298.63;;;20.93;62.98
36304;BME280;22335;49.800;8.596;2023-09-19T07:04:05;100306.31;;;21.16;62.52
36304;BME280;22335;49.800;8.596;2023-09-19T07:10:48;100269.97;;;21.09;61.89
36304;BME280;22335;49.800;8.596;2023-09-19T07:17:34;100306.75;;;21.50;61.83
36304;BME280;22335;49.800;8.596;2023-09-19T07:24:19;100311.47;;;21.65;61.09
36304;BME280;22335;49.800;8.596;2023-09-19T07:31:04;100332.81;;;21.77;60.76
36304;BME280;22335;49.800;8.596;2023-09-19T07:37:49;100358.56;;;21.90;59.62
36304;BME280;22335;49.800;8.596;2023-09-19T07:44:36;100354.94;;;21.89;59.42
36304;BME280;22335;49.800;8.596;2023-09-19T07:51:19;100384.50;;;21.94;59.20
36304;BME280;22335;49.800;8.596;2023-09-19T07:58:03;100385.09;;;22.03;58.30
36304;BME280;22335;49.800;8.596;2023-09-19T08:04:50;100379.97;;;22.05;58.01
36304;BME280;22335;49.800;8.596;2023-09-19T08:11:33;100393.31;;;21.96;58.12
36304;BME280;22335;49.800;8.596;2023-09-19T08:18:17;100392.44;;;22.11;57.69
36304;BME280;22335;49.800;8.596;2023-09-19T08:25:02;100380.47;;;22.26;57.46
36304;BME280;22335;49.800;8.596;2023-09-19T08:31:48;100402.47;;;22.31;56.63
36304;BME280;22335;49.800;8.596;2023-09-19T08:38:34;100398.22;;;22.38;54.97
36304;BME280;22335;49.800;8.596;2023-09-19T08:45:20;100403.50;;;22.43;54.75
36304;BME280;22335;49.800;8.596;2023-09-19T08:52:16;100350.91;;;22.22;54.86
36304;BME280;22335;49.800;8.596;2023-09-19T08:59:06;100405.25;;;22.70;53.73
36304;BME280;22335;49.800;8.596;2023-09-19T09:05:52;100347.44;;;22.48;53.44
36304;BME280;22335;49.800;8.596;2023-09-19T09:12:36;100399.25;;;22.68;54.73
36304;BME280;22335;49.800;8.596;2023-09-19T09:19:22;100413.25;;;22.72;53.41
36304;BME280;22335;49.800;8.596;2023-09-19T09:26:07;100405.09;;;22.83;52.50
36304;BME280;22335;49.800;8.596;2023-09-19T09:33:07;100388.44;;;22.86;51.78
36304;BME280;22335;49.800;8.596;2023-09-19T09:39:54;100405.91;;;23.02;51.45
36304;BME280;22335;49.800;8.596;2023-09-19T09:46:44;100401.69;;;23.12;51.08
36304;BME280;22335;49.800;8.596;2023-09-19T09:54:11;100352.84;;;22.99;49.86
36304;BME280;22335;49.800;8.596;2023-09-19T10:00:56;100388.75;;;23.50;49.32
36304;BME280;22335;49.800;8.596;2023-09-19T10:07:44;100391.41;;;23.66;49.30
36304;BME280;22335;49.800;8.596;2023-09-19T10:14:36;100389.00;;;23.64;48.70
36304;BME280;22335;49.800;8.596;2023-09-19T10:21:21;100399.88;;;23.69;48.19
36304;BME280;22335;49.800;8.596;2023-09-19T10:28:07;100397.50;;;23.72;47.97
36304;BME280;22335;49.800;8.596;2023-09-19T10:34:53;100392.91;;;23.83;46.35
36304;BME280;22335;49.800;8.596;2023-09-19T10:41:39;100391.63;;;23.77;48.09
36304;BME280;22335;49.800;8.596;2023-09-19T10:48:24;100407.50;;;23.99;45.74
36304;BME280;22335;49.800;8.596;2023-09-19T10:55:15;100404.72;;;23.99;44.77
36304;BME280;22335;49.800;8.596;2023-09-19T11:02:15;100374.31;;;23.94;45.55
36304;BME280;22335;49.800;8.596;2023-09-19T11:09:03;100388.56;;;24.15;44.41
36304;BME280;22335;49.800;8.596;2023-09-19T11:16:04;100376.72;;;24.26;43.77
36304;BME280;22335;49.800;8.596;2023-09-19T11:23:19;100367.66;;;24.36;45.93
36304;BME280;22335;49.800;8.596;2023-09-19T11:30:27;100297.16;;;24.16;44.14
36304;BME280;22335;49.800;8.596;2023-09-19T11:44:52;100349.34;;;24.72;44.73
36304;BME280;22335;49.800;8.596;2023-09-19T11:51:41;100339.03;;;24.83;43.47
36304;BME280;22335;49.800;8.596;2023-09-19T11:58:27;100349.16;;;24.95;43.10
36304;BME280;22335;49.800;8.596;2023-09-19T12:05:11;100337.69;;;25.07;42.09
36304;BME280;22335;49.800;8.596;2023-09-19T12:11:58;100334.09;;;25.11;42.31
36304;BME280;22335;49.800;8.596;2023-09-19T12:18:42;100349.34;;;25.13;41.30
36304;BME280;22335;49.800;8.596;2023-09-19T12:25:41;100330.63;;;25.21;40.95
36304;BME280;22335;49.800;8.596;2023-09-19T12:32:35;100323.13;;;25.32;40.49
36304;BME280;22335;49.800;8.596;2023-09-19T12:39:24;100321.22;;;25.47;40.62
36304;BME280;22335;49.800;8.596;2023-09-19T12:46:08;100326.50;;;25.56;40.93
36304;BME280;22335;49.800;8.596;2023-09-19T12:52:53;100317.34;;;25.66;39.80
36304;BME280;22335;49.800;8.596;2023-09-19T12:59:38;100314.22;;;25.74;40.21
36304;BME280;22335;49.800;8.596;2023-09-19T13:06:35;100289.84;;;25.82;39.36
36304;BME280;22335;49.800;8.596;2023-09-19T13:13:25;100252.94;;;25.73;39.12
36304;BME280;22335;49.800;8.596;2023-09-19T13:20:20;100279.47;;;25.86;39.24
36304;BME280;22335;49.800;8.596;2023-09-19T13:27:08;100295.50;;;25.89;39.61
36304;BME280;22335;49.800;8.596;2023-09-19T13:33:53;100281.53;;;25.96;39.82
36304;BME280;22335;49.800;8.596;2023-09-19T13:40:38;100276.69;;;25.93;39.66
36304;BME280;22335;49.800;8.596;2023-09-19T13:47:23;100275.94;;;26.04;39.74
36304;BME280;22335;49.800;8.596;2023-09-19T13:54:09;100270.78;;;26.16;39.67
36304;BME280;22335;49.800;8.596;2023-09-19T14:00:56;100265.59;;;26.22;39.21
36304;BME280;22335;49.800;8.596;2023-09-19T14:07:41;100280.44;;;26.33;38.34
36304;BME280;22335;49.800;8.596;2023-09-19T14:14:26;100259.63;;;26.38;39.34
36304;BME280;22335;49.800;8.596;2023-09-19T14:21:10;100263.63;;;26.33;39.03
36304;BME280;22335;49.800;8.596;2023-09-19T14:27:53;100264.00;;;26.32;38.98
36304;BME280;22335;49.800;8.596;2023-09-19T14:34:38;100243.59;;;26.31;38.80
36304;BME280;22335;49.800;8.596;2023-09-19T14:41:24;100251.97;;;26.24;39.16
36304;BME280;22335;49.800;8.596;2023-09-19T14:48:07;100235.16;;;26.24;39.10
36304;BME280;22335;49.800;8.596;2023-09-19T14:54:53;100220.34;;;26.24;38.70
36304;BME280;22335;49.800;8.596;2023-09-19T15:01:37;100229.94;;;26.26;38.83
36304;BME280;22335;49.800;8.596;2023-09-19T15:08:22;100230.72;;;26.23;38.93
36304;BME280;22335;49.800;8.596;2023-09-19T15:15:07;100203.13;;;26.32;39.26
36304;BME280;22335;49.800;8.596;2023-09-19T15:21:51;100212.78;;;26.42;38.95
36304;BME280;22335;49.800;8.596;2023-09-19T15:28:35;100163.84;;;26.32;39.26
36304;BME280;22335;49.800;8.596;2023-09-19T15:35:21;100194.78;;;26.61;39.77
36304;BME280;22335;49.800;8.596;2023-09-19T15:42:04;100200.38;;;26.61;40.33
36304;BME280;22335;49.800;8.596;2023-09-19T15:48:48;100192.78;;;26.61;39.71
36304;BME280;22335;49.800;8.596;2023-09-19T15:55:38;100182.75;;;26.57;39.73
36304;BME280;22335;49.800;8.596;2023-09-19T16:02:25;100192.78;;;26.58;39.67
36304;BME280;22335;49.800;8.596;2023-09-19T16:09:09;100163.09;;;26.46;39.55
36304;BME280;22335;49.800;8.596;2023-09-19T16:15:54;100185.53;;;26.50;39.86
36304;BME280;22335;49.800;8.596;2023-09-19T16:22:38;100194.31;;;26.44;39.95
36304;BME280;22335;49.800;8.596;2023-09-19T16:29:22;100189.91;;;26.36;40.42
36304;BME280;22335;49.800;8.596;2023-09-19T16:36:12;100172.28;;;26.25;40.46
36304;BME280;22335;49.800;8.596;2023-09-19T16:42:56;100192.31;;;26.27;40.33
36304;BME280;22335;49.800;8.596;2023-09-19T16:49:39;100191.47;;;26.23;40.46
36304;BME280;22335;49.800;8.596;2023-09-19T16:56:24;100169.06;;;26.16;40.82
36304;BME280;22335;49.800;8.596;2023-09-19T17:03:09;100149.38;;;25.94;40.84
36304;BME280;22335;49.800;8.596;2023-09-19T17:09:53;100194.69;;;26.21;40.58
36304;BME280;22335;49.800;8.596;2023-09-19T17:16:38;100192.69;;;26.18;40.93
36304;BME280;22335;49.800;8.596;2023-09-19T17:23:23;100199.09;;;26.15;40.90
36304;BME280;22335;49.800;8.596;2023-09-19T17:30:08;100189.88;;;26.11;41.06
36304;BME280;22335;49.800;8.596;2023-09-19T17:36:56;100200.25;;;26.07;40.93
36304;BME280;22335;49.800;8.596;2023-09-19T17:43:40;100208.28;;;26.05;40.84
36304;BME280;22335;49.800;8.596;2023-09-19T17:50:24;100219.88;;;26.04;41.00
36304;BME280;22335;49.800;8.596;2023-09-19T17:57:10;100217.47;;;26.02;40.88
36304;BME280;22335;49.800;8.596;2023-09-19T18:03:53;100228.28;;;26.00;41.33
36304;BME280;22335;49.800;8.596;2023-09-19T18:10:39;100234.69;;;25.97;41.40
36304;BME280;22335;49.800;8.596;2023-09-19T18:17:24;100234.25;;;25.88;41.40
36304;BME280;22335;49.800;8.596;2023-09-19T18:24:08;100249.38;;;25.80;41.66
36304;BME280;22335;49.800;8.596;2023-09-19T18:30:55;100266.16;;;25.72;41.56
36304;BME280;22335;49.800;8.596;2023-09-19T18:37:41;100258.56;;;25.73;41.85
36304;BME280;22335;49.800;8.596;2023-09-19T18:44:25;100272.53;;;25.66;42.23
36304;BME280;22335;49.800;8.596;2023-09-19T18:51:08;100272.09;;;25.60;42.12
36304;BME280;22335;49.800;8.596;2023-09-19T18:57:54;100266.44;;;25.49;42.13
36304;BME280;22335;49.800;8.596;2023-09-19T19:04:39;100281.63;;;25.48;42.67
36304;BME280;22335;49.800;8.596;2023-09-19T19:11:22;100283.94;;;25.32;42.86
36304;BME280;22335;49.800;8.596;2023-09-19T19:18:09;100271.09;;;25.27;42.82
36304;BME280;22335;49.800;8.596;2023-09-19T19:24:53;100281.78;;;25.15;43.40
36304;BME280;22335;49.800;8.596;2023-09-19T19:31:37;100283.63;;;24.96;43.56
36304;BME280;22335;49.800;8.596;2023-09-19T19:38:22;100282.31;;;24.87;43.75
36304;BME280;22335;49.800;8.596;2023-09-19T19:45:08;100277.78;;;24.71;43.61
36304;BME280;22335;49.800;8.596;2023-09-19T19:51:52;100281.97;;;24.47;44.04
36304;BME280;22335;49.800;8.596;2023-09-19T19:58:37;100283.84;;;24.39;44.16
36304;BME280;22335;49.800;8.596;2023-09-19T20:05:20;100283.81;;;24.36;44.44
36304;BME280;22335;49.800;8.596;2023-09-19T20:12:05;100283.44;;;24.37;44.89
36304;BME280;22335;49.800;8.596;2023-09-19T20:18:50;100281.41;;;24.34;44.72
36304;BME280;22335;49.800;8.596;2023-09-19T20:25:34;100290.50;;;24.28;44.65
36304;BME280;22335;49.800;8.596;2023-09-19T20:32:20;100305.03;;;24.07;45.00
36304;BME280;22335;49.800;8.596;2023-09-19T20:39:05;100299.69;;;23.95;45.26
36304;BME280;22335;49.800;8.596;2023-09-19T20:45:51;100301.22;;;23.88;44.99
36304;BME280;22335;49.800;8.596;2023-09-19T20:52:35;100296.69;;;23.80;45.58
36304;BME280;22335;49.800;8.596;2023-09-19T20:59:21;100292.25;;;23.76;45.67
36304;BME280;22335;49.800;8.596;2023-09-19T21:06:08;100299.59;;;23.61;45.55
36304;BME280;22335;49.800;8.596;2023-09-19T21:12:54;100299.38;;;23.46;45.70
36304;BME280;22335;49.800;8.596;2023-09-19T21:19:39;100235.41;;;23.08;45.91
36304;BME280;22335;49.800;8.596;2023-09-19T21:26:22;100291.06;;;23.23;46.22
36304;BME280;22335;49.800;8.596;2023-09-19T21:33:06;100252.19;;;22.88;46.24
36304;BME280;22335;49.800;8.596;2023-09-19T21:39:51;100277.00;;;22.93;46.50
36304;BME280;22335;49.800;8.596;2023-09-19T21:46:35;100293.91;;;22.81;46.92
36304;BME280;22335;49.800;8.596;2023-09-19T21:53:21;100241.19;;;22.49;46.69
36304;BME280;22335;49.800;8.596;2023-09-19T22:00:07;100273.72;;;22.65;47.03
36304;BME280;22335;49.800;8.596;2023-09-19T22:07:05;100284.38;;;22.59;47.20
36304;BME280;22335;49.800;8.596;2023-09-19T22:13:50;100283.41;;;22.51;47.42
36304;BME280;22335;49.800;8.596;2023-09-19T22:20:35;100276.91;;;22.44;47.72
36304;BME280;22335;49.800;8.596;2023-09-19T22:27:27;100285.16;;;22.37;47.73
36304;BME280;22335;49.800;8.596;2023-09-19T22:34:11;100294.91;;;22.27;47.90
36304;BME280;22335;49.800;8.596;2023-09-19T22:40:57;100281.72;;;22.24;48.13
36304;BME280;22335;49.800;8.596;2023-09-19T22:47:44;100298.63;;;22.15;48.44
36304;BME280;22335;49.800;8.596;2023-09-19T22:54:28;100269.88;;;21.92;48.85
36304;BME280;22335;49.800;8.596;2023-09-19T23:01:19;100285.34;;;22.08;48.80
36304;BME280;22335;49.800;8.596;2023-09-19T23:08:10;100291.66;;;22.05;48.97
36304;BME280;22335;49.800;8.596;2023-09-19T23:14:56;100287.56;;;21.99;49.12
36304;BME280;22335;49.800;8.596;2023-09-19T23:21:43;100287.97;;;22.01;49.24
36304;BME280;22335;49.800;8.596;2023-09-19T23:28:33;100284.69;;;21.96;49.31
36304;BME280;22335;49.800;8.596;2023-09-19T23:35:24;100290.41;;;22.03;49.37
36304;BME280;22335;49.800;8.596;2023-09-19T23:42:10;100285.66;;;22.03;49.59
36304;BME280;22335;49.800;8.596;2023-09-19T23:48:53;100272.72;;;21.95;49.41
36304;BME280;22335;49.800;8.596;2023-09-19T23:55:38;100277.63;;;22.02;49.68
